createdAt,value
2023-07-18T00:01:12.451Z,8.67
2023-07-18T00:06:15.866Z,11.00
2023-07-18T00:11:18.024Z,11.67
2023-07-18T00:16:20.210Z,9.67
2023-07-18T00:21:22.118Z,9.00
2023-07-18T00:26:25.483Z,10.00
2023-07-18T00:31:28.247Z,9.00
2023-07-18T00:36:30.828Z,12.33
2023-07-18T00:41:32.767Z,11.33
2023-07-18T00:46:34.744Z,13.33
2023-07-18T00:51:36.642Z,11.00
2023-07-18T00:56:40.642Z,10.33
2023-07-18T01:01:42.644Z,11.33
2023-07-18T01:06:46.026Z,12.67
2023-07-18T01:11:47.862Z,10.00
2023-07-18T01:16:49.674Z,11.00
2023-07-18T01:21:51.492Z,10.67
2023-07-18T01:26:53.762Z,12.00
2023-07-18T01:31:55.600Z,13.33
2023-07-18T01:36:57.694Z,11.33
2023-07-18T01:41:59.513Z,12.00
2023-07-18T01:47:03.776Z,11.33
2023-07-18T01:52:06.306Z,10.33
2023-07-18T01:57:08.137Z,11.33
2023-07-18T02:02:10.026Z,14.33
2023-07-18T02:07:11.892Z,11.33
2023-07-18T02:12:13.720Z,11.00
2023-07-18T02:17:15.640Z,11.00
2023-07-18T02:22:20.490Z,11.67
2023-07-18T02:27:23.495Z,11.00
2023-07-18T02:32:25.272Z,11.00
2023-07-18T02:37:27.832Z,12.00
2023-07-18T02:42:31.515Z,11.33
2023-07-18T02:47:33.459Z,13.00
2023-07-18T02:52:35.510Z,10.33
2023-07-18T02:57:37.680Z,12.67
2023-07-18T03:02:39.844Z,11.33
2023-07-18T03:07:41.827Z,11.00
2023-07-18T03:12:43.632Z,12.00
2023-07-18T03:17:45.508Z,10.33
2023-07-18T03:22:49.499Z,11.00
2023-07-18T03:27:52.361Z,12.33
2023-07-18T03:32:54.480Z,11.00
2023-07-18T03:37:56.280Z,11.00
2023-07-18T03:42:58.156Z,11.33
2023-07-18T03:48:00.528Z,12.00
2023-07-18T03:53:02.358Z,14.33
2023-07-18T03:58:04.220Z,11.67
2023-07-18T04:03:06.001Z,11.33
2023-07-18T04:08:07.955Z,12.33
2023-07-18T04:13:09.719Z,13.00
2023-07-18T04:18:11.486Z,8.00
2023-07-18T04:23:13.516Z,14.00
2023-07-18T04:28:15.453Z,13.67
2023-07-18T04:33:17.391Z,11.00
2023-07-18T04:38:19.354Z,12.33
2023-07-18T04:43:21.172Z,13.00
2023-07-18T04:48:22.931Z,12.00
2023-07-18T04:53:28.049Z,14.33
2023-07-18T04:58:29.787Z,13.33
2023-07-18T05:03:40.917Z,13.00
2023-07-18T05:08:54.902Z,14.67
2023-07-18T05:13:56.760Z,13.33
2023-07-18T05:18:58.492Z,13.00
2023-07-18T05:24:00.281Z,11.00
2023-07-18T05:29:02.013Z,12.00
2023-07-18T05:34:03.814Z,11.00
2023-07-18T05:39:05.557Z,12.67
2023-07-18T05:44:07.359Z,12.00
2023-07-18T05:49:09.251Z,13.67
2023-07-18T05:54:11.031Z,12.00
2023-07-18T05:59:12.841Z,15.33
2023-07-18T06:04:17.248Z,9.67
2023-07-18T06:09:19.329Z,13.33
2023-07-18T06:14:21.286Z,12.67
2023-07-18T06:19:23.083Z,12.33
2023-07-18T06:24:25.689Z,13.00
2023-07-18T06:29:27.918Z,13.67
2023-07-18T06:34:31.432Z,12.00
2023-07-18T06:39:33.242Z,13.67
2023-07-18T06:44:35.099Z,14.00
2023-07-18T06:49:37.122Z,14.33
2023-07-18T06:54:38.977Z,14.00
2023-07-18T06:59:41.048Z,12.00
2023-07-18T07:04:42.865Z,16.67
2023-07-18T07:09:44.950Z,16.00
2023-07-18T07:14:46.763Z,17.00
2023-07-18T07:19:48.585Z,16.67
2023-07-18T07:24:50.397Z,16.00
2023-07-18T07:29:53.212Z,16.00
2023-07-18T07:34:55.110Z,18.33
2023-07-18T07:39:56.984Z,16.00
2023-07-18T07:45:00.081Z,17.33
2023-07-18T07:50:02.989Z,17.67
2023-07-18T07:55:05.260Z,17.67
2023-07-18T08:00:08.392Z,16.33
2023-07-18T08:05:10.361Z,20.33
2023-07-18T08:10:12.345Z,18.33
2023-07-18T08:15:14.267Z,16.33
2023-07-18T08:20:16.095Z,18.67
2023-07-18T08:25:19.037Z,15.00
2023-07-18T08:30:21.188Z,19.67
2023-07-18T08:35:24.065Z,19.33
2023-07-18T08:40:25.893Z,19.00
2023-07-18T08:45:31.704Z,18.67
2023-07-18T08:50:34.891Z,23.00
2023-07-18T08:55:37.915Z,18.00
2023-07-18T09:00:39.936Z,19.67
2023-07-18T09:05:41.792Z,17.67
2023-07-18T09:10:43.680Z,20.00
2023-07-18T09:15:45.474Z,18.67
2023-07-18T09:20:47.338Z,17.00
2023-07-18T09:25:49.115Z,19.00
2023-07-18T09:30:50.920Z,20.00
2023-07-18T09:35:52.809Z,18.33
2023-07-18T09:40:55.831Z,20.33
2023-07-18T09:45:57.840Z,21.00
2023-07-18T09:51:03.285Z,20.33
2023-07-18T09:56:07.389Z,19.33
2023-07-18T10:01:13.081Z,18.67
2023-07-18T10:06:16.352Z,19.67
2023-07-18T10:11:18.410Z,20.67
2023-07-18T10:16:21.082Z,18.33
2023-07-18T10:21:36.049Z,19.00
2023-07-18T10:26:53.600Z,21.67
2023-07-18T10:32:06.109Z,17.00
2023-07-18T10:37:11.899Z,22.33
2023-07-18T10:42:22.313Z,18.33
2023-07-18T10:47:24.767Z,21.33
2023-07-18T10:52:26.909Z,21.00
2023-07-18T10:57:30.701Z,20.67
2023-07-18T11:02:38.607Z,21.67
2023-07-18T11:07:42.466Z,20.00
2023-07-18T11:12:44.530Z,16.67
2023-07-18T11:17:46.365Z,16.67
2023-07-18T11:22:48.316Z,14.67
2023-07-18T11:27:50.663Z,15.33
2023-07-18T11:32:52.569Z,9.33
2023-07-18T11:37:55.083Z,12.00
2023-07-18T11:42:59.076Z,14.67
2023-07-18T11:48:01.132Z,13.00
2023-07-18T11:53:04.762Z,13.00
2023-07-18T11:58:09.146Z,12.67
2023-07-18T12:03:11.374Z,11.00
2023-07-18T12:08:14.737Z,12.00
2023-07-18T12:13:17.271Z,11.00
2023-07-18T12:18:19.435Z,11.00
2023-07-18T12:23:21.285Z,10.00
2023-07-18T12:28:23.051Z,12.67
2023-07-18T12:33:24.916Z,13.00
2023-07-18T12:38:29.035Z,7.67
2023-07-18T12:43:31.816Z,11.00
2023-07-18T12:48:33.631Z,8.67
2023-07-18T12:53:35.685Z,9.67
2023-07-18T12:58:37.515Z,12.00
2023-07-18T13:03:39.445Z,11.00
2023-07-18T13:08:41.389Z,10.67
2023-07-18T13:13:43.704Z,12.33
2023-07-18T13:18:45.503Z,9.67
2023-07-18T13:23:51.910Z,10.67
2023-07-18T13:28:53.662Z,7.67
2023-07-18T13:33:55.452Z,10.33
2023-07-18T13:38:57.272Z,8.00
2023-07-18T13:43:59.004Z,11.00
2023-07-18T13:49:02.174Z,7.67
2023-07-18T13:54:04.026Z,12.00
2023-07-18T13:59:05.778Z,9.25
2023-07-18T14:04:07.875Z,10.25
2023-07-18T14:09:09.806Z,11.33
2023-07-18T14:14:11.573Z,10.33
2023-07-18T14:19:13.369Z,8.67
2023-07-18T14:24:15.119Z,11.00
2023-07-18T14:29:16.897Z,7.67
2023-07-18T14:34:18.959Z,11.33
2023-07-18T14:39:20.774Z,9.33
2023-07-18T14:44:22.674Z,10.00
2023-07-18T14:49:24.474Z,10.67
2023-07-18T14:54:26.336Z,10.25
2023-07-18T14:59:28.159Z,9.00
2023-07-18T15:04:29.914Z,10.75
2023-07-18T15:09:32.026Z,8.25
2023-07-18T15:14:33.786Z,10.33
2023-07-18T15:19:35.702Z,9.25
2023-07-18T15:24:37.550Z,12.33
2023-07-18T15:29:39.348Z,13.00
2023-07-18T15:34:41.148Z,11.33
2023-07-18T15:39:43.008Z,11.33
2023-07-18T15:44:44.819Z,12.00
2023-07-18T15:49:46.823Z,11.33
2023-07-18T15:54:48.783Z,10.67
2023-07-18T15:59:50.719Z,11.00
2023-07-18T16:04:52.844Z,8.00
2023-07-18T16:09:59.638Z,11.00
2023-07-18T16:15:01.649Z,9.00
2023-07-18T16:20:05.486Z,11.00
2023-07-18T16:25:08.969Z,12.33
2023-07-18T16:30:11.562Z,9.67
2023-07-18T16:35:13.686Z,12.00
2023-07-18T16:40:15.491Z,12.33
2023-07-18T16:45:17.334Z,9.00
2023-07-18T16:50:19.392Z,11.67
2023-07-18T16:55:21.302Z,10.00
2023-07-18T17:00:23.175Z,10.00
2023-07-18T17:05:25.399Z,11.33
2023-07-18T17:10:27.814Z,13.00
2023-07-18T17:15:29.669Z,10.67
2023-07-18T17:20:31.520Z,9.67
2023-07-18T17:25:33.750Z,9.00
2023-07-18T17:30:35.890Z,9.67
2023-07-18T17:35:38.663Z,10.67
2023-07-18T17:40:40.476Z,11.33
2023-07-18T17:45:42.303Z,11.33
2023-07-18T17:50:44.356Z,11.33
2023-07-18T17:55:46.301Z,8.00
2023-07-18T18:00:48.185Z,10.67
2023-07-18T18:05:51.552Z,13.67
2023-07-18T18:10:53.424Z,10.67
2023-07-18T18:16:07.462Z,12.00
2023-07-18T18:21:11.899Z,12.00
2023-07-18T18:26:13.864Z,10.67
2023-07-18T18:31:16.287Z,10.67
2023-07-18T18:36:23.976Z,12.33
2023-07-18T18:41:25.862Z,12.00
2023-07-18T18:46:27.818Z,11.00
2023-07-18T18:51:29.682Z,12.67
2023-07-18T18:56:31.635Z,15.00
2023-07-18T19:01:33.470Z,11.67
2023-07-18T19:06:35.341Z,11.00
2023-07-18T19:11:37.220Z,12.67
2023-07-18T19:16:40.843Z,14.67
2023-07-18T19:21:43.300Z,10.67
2023-07-18T19:26:45.157Z,14.00
2023-07-18T19:31:46.993Z,11.00
2023-07-18T19:36:49.221Z,12.67
2023-07-18T19:41:51.056Z,12.33
2023-07-18T19:46:52.896Z,10.67
2023-07-18T19:51:57.747Z,11.00
2023-07-18T19:56:59.800Z,14.00
2023-07-18T20:02:01.655Z,9.33
2023-07-18T20:07:03.689Z,12.67
2023-07-18T20:12:05.775Z,12.67
2023-07-18T20:17:07.623Z,12.33
2023-07-18T20:22:09.419Z,9.00
2023-07-18T20:27:11.304Z,11.67
2023-07-18T20:32:13.134Z,9.33
2023-07-18T20:37:14.976Z,10.67
2023-07-18T20:42:17.013Z,13.00
2023-07-18T20:47:18.834Z,13.33
2023-07-18T20:52:20.635Z,14.00
2023-07-18T20:57:22.938Z,12.67
2023-07-18T21:02:24.739Z,12.33
2023-07-18T21:07:27.890Z,13.67
2023-07-18T21:12:29.646Z,14.67
2023-07-18T21:17:31.510Z,16.00
2023-07-18T21:22:34.264Z,13.33
2023-07-18T21:27:36.156Z,12.33
2023-07-18T21:32:38.029Z,11.67
2023-07-18T21:37:39.794Z,14.00
2023-07-18T21:42:41.548Z,13.00
2023-07-18T21:47:43.487Z,12.67
2023-07-18T21:52:45.557Z,14.33
2023-07-18T21:57:47.443Z,12.00
2023-07-18T22:02:49.304Z,11.67
2023-07-18T22:07:51.100Z,14.67
2023-07-18T22:12:52.859Z,12.00
2023-07-18T22:17:54.684Z,13.67
2023-07-18T22:22:56.446Z,10.67
2023-07-18T22:27:58.284Z,10.33
2023-07-18T22:33:00.048Z,12.00
2023-07-18T22:38:03.828Z,14.00
2023-07-18T22:43:06.458Z,14.67
2023-07-18T22:48:08.378Z,13.00
2023-07-18T22:53:10.221Z,14.33
2023-07-18T22:58:12.086Z,12.33
2023-07-18T23:03:15.610Z,12.67
2023-07-18T23:08:17.559Z,11.33
2023-07-18T23:13:19.373Z,12.00
2023-07-18T23:18:21.245Z,13.00
2023-07-18T23:23:23.211Z,14.33
2023-07-18T23:28:25.056Z,14.33
2023-07-18T23:33:26.817Z,13.00
2023-07-18T23:38:29.428Z,13.33
2023-07-18T23:43:31.592Z,14.00
2023-07-18T23:48:34.186Z,13.33
2023-07-18T23:53:36.046Z,14.33
2023-07-18T23:58:37.944Z,13.67
